createdAt,value
2018-12-11T00:00:11.320Z,973.50
2018-12-11T00:01:11.317Z,973.43
2018-12-11T00:02:11.312Z,973.44
2018-12-11T00:03:11.328Z,973.46
2018-12-11T00:04:11.300Z,973.45
2018-12-11T00:05:11.296Z,973.43
2018-12-11T00:06:11.295Z,973.38
2018-12-11T00:07:11.285Z,973.37
2018-12-11T00:08:11.308Z,973.47
2018-12-11T00:09:11.273Z,973.34
2018-12-11T00:10:11.265Z,973.33
2018-12-11T00:11:11.260Z,973.28
2018-12-11T00:12:11.256Z,973.33
2018-12-11T00:13:11.279Z,973.29
2018-12-11T00:14:11.243Z,973.27
2018-12-11T00:15:11.240Z,973.34
2018-12-11T00:16:11.234Z,973.27
2018-12-11T00:17:11.235Z,973.30
2018-12-11T00:18:11.251Z,973.28
2018-12-11T00:19:11.223Z,973.28
2018-12-11T00:20:11.216Z,973.18
2018-12-11T00:21:11.209Z,973.22
2018-12-11T00:22:11.203Z,973.18
2018-12-11T00:23:11.223Z,973.21
2018-12-11T00:24:11.191Z,973.24
2018-12-11T00:25:11.195Z,973.22
2018-12-11T00:26:11.179Z,973.19
2018-12-11T00:27:11.171Z,973.23
2018-12-11T00:28:11.200Z,973.24
2018-12-11T00:29:11.163Z,973.18
2018-12-11T00:30:11.163Z,973.24
2018-12-11T00:31:11.173Z,973.15
2018-12-11T00:32:11.153Z,973.19
2018-12-11T00:33:11.166Z,973.20
2018-12-11T00:34:11.139Z,973.18
2018-12-11T00:35:11.131Z,973.28
2018-12-11T00:36:11.124Z,973.25
2018-12-11T00:37:11.120Z,973.21
2018-12-11T00:38:11.139Z,973.23
2018-12-11T00:39:11.107Z,973.32
2018-12-11T00:40:11.098Z,973.32
2018-12-11T00:41:11.090Z,973.28
2018-12-11T00:42:11.089Z,973.29
2018-12-11T00:43:11.119Z,973.23
2018-12-11T00:44:11.077Z,973.27
2018-12-11T00:45:11.070Z,973.23
2018-12-11T00:46:11.067Z,973.23
2018-12-11T00:47:11.058Z,973.20
2018-12-11T00:48:11.082Z,973.28
2018-12-11T00:49:11.046Z,973.31
2018-12-11T00:50:11.038Z,973.31
2018-12-11T00:51:11.042Z,973.35
2018-12-11T00:52:11.027Z,973.28
2018-12-11T00:53:11.054Z,973.26
2018-12-11T00:54:11.021Z,973.25
2018-12-11T00:55:11.018Z,973.28
2018-12-11T00:56:11.009Z,973.27
2018-12-11T00:57:11.002Z,973.24
2018-12-11T00:58:11.025Z,973.23
2018-12-11T00:59:10.988Z,973.17
2018-12-11T01:00:10.985Z,973.15
2018-12-11T01:01:10.979Z,973.15
2018-12-11T01:02:10.971Z,973.10
2018-12-11T01:03:10.993Z,973.10
2018-12-11T01:04:10.960Z,973.09
2018-12-11T01:05:10.961Z,973.06
2018-12-11T01:06:10.957Z,973.00
2018-12-11T01:07:10.969Z,973.05
2018-12-11T01:08:10.941Z,973.01
2018-12-11T01:09:10.931Z,973.04
2018-12-11T01:10:10.930Z,973.06
2018-12-11T01:11:10.917Z,973.09
2018-12-11T01:12:10.944Z,973.09
2018-12-11T01:13:10.909Z,973.09
2018-12-11T01:14:10.905Z,973.06
2018-12-11T01:15:10.897Z,973.06
2018-12-11T01:16:10.893Z,973.11
2018-12-11T01:17:10.928Z,973.00
2018-12-11T01:18:10.877Z,973.03
2018-12-11T01:19:10.878Z,973.04
2018-12-11T01:20:10.868Z,973.08
2018-12-11T01:21:10.864Z,973.09
2018-12-11T01:22:10.904Z,973.03
2018-12-11T01:23:10.883Z,973.04
2018-12-11T01:24:10.844Z,973.12
2018-12-11T01:25:10.841Z,973.09
2018-12-11T01:26:10.836Z,973.16
2018-12-11T01:27:10.833Z,973.13
2018-12-11T01:28:10.854Z,973.25
2018-12-11T01:29:10.821Z,973.17
2018-12-11T01:30:10.811Z,973.15
2018-12-11T01:31:10.808Z,973.16
2018-12-11T01:32:10.806Z,973.12
2018-12-11T01:33:10.823Z,973.11
2018-12-11T01:34:10.788Z,973.11
2018-12-11T01:35:10.785Z,973.18
2018-12-11T01:36:10.780Z,973.14
2018-12-11T01:37:10.800Z,973.07
2018-12-11T01:38:10.769Z,973.09
2018-12-11T01:39:10.758Z,973.05
2018-12-11T01:40:10.754Z,973.04
2018-12-11T01:41:10.746Z,973.12
2018-12-11T01:42:10.776Z,973.15
2018-12-11T01:43:10.735Z,973.16
2018-12-11T01:44:10.731Z,973.14
2018-12-11T01:45:10.727Z,973.17
2018-12-11T01:46:10.718Z,973.17
2018-12-11T01:47:10.743Z,973.20
2018-12-11T01:48:10.714Z,973.17
2018-12-11T01:49:10.706Z,973.17
2018-12-11T01:50:10.698Z,973.24
2018-12-11T01:51:10.691Z,973.19
2018-12-11T01:52:10.714Z,973.29
2018-12-11T01:53:10.682Z,973.24
2018-12-11T01:54:10.700Z,973.35
2018-12-11T01:55:10.670Z,973.34
2018-12-11T01:56:10.663Z,973.33
2018-12-11T01:57:10.686Z,973.31
2018-12-11T01:58:10.652Z,973.27
2018-12-11T01:59:10.647Z,973.27
2018-12-11T02:00:10.643Z,973.28
2018-12-11T02:01:10.634Z,973.34
2018-12-11T02:02:10.661Z,973.31
2018-12-11T02:03:10.627Z,973.32
2018-12-11T02:04:10.615Z,973.28
2018-12-11T02:05:10.614Z,973.25
2018-12-11T02:06:10.701Z,973.20
2018-12-11T02:07:10.627Z,973.25
2018-12-11T02:08:10.597Z,973.23
2018-12-11T02:09:10.590Z,973.18
2018-12-11T02:10:10.586Z,973.26
2018-12-11T02:11:10.578Z,973.27
2018-12-11T02:12:10.602Z,973.31
2018-12-11T02:13:10.566Z,973.35
2018-12-11T02:14:10.563Z,973.29
2018-12-11T02:15:11.936Z,973.29
2018-12-11T02:16:10.557Z,973.31
2018-12-11T02:17:10.570Z,973.33
2018-12-11T02:18:10.543Z,973.34
2018-12-11T02:19:10.534Z,973.30
2018-12-11T02:20:10.527Z,973.33
2018-12-11T02:21:10.527Z,973.29
2018-12-11T02:22:10.549Z,973.27
2018-12-11T02:23:10.514Z,973.25
2018-12-11T02:24:10.505Z,973.22
2018-12-11T02:25:10.502Z,973.28
2018-12-11T02:26:10.494Z,973.29
2018-12-11T02:27:10.517Z,973.23
2018-12-11T02:28:10.483Z,973.22
2018-12-11T02:29:10.477Z,973.27
2018-12-11T02:30:10.488Z,973.30
2018-12-11T02:31:10.474Z,973.32
2018-12-11T02:32:10.499Z,973.32
2018-12-11T02:33:10.464Z,973.30
2018-12-11T02:34:10.445Z,973.34
2018-12-11T02:35:10.446Z,973.27
2018-12-11T02:36:10.437Z,973.29
2018-12-11T02:37:10.462Z,973.30
2018-12-11T02:38:10.431Z,973.33
2018-12-11T02:39:10.417Z,973.30
2018-12-11T02:40:10.417Z,973.31
2018-12-11T02:41:10.411Z,973.32
2018-12-11T02:51:20.328Z,973.30
2018-12-11T02:52:20.315Z,973.35
2018-12-11T02:53:20.318Z,973.34
2018-12-11T02:54:20.303Z,973.34
2018-12-11T02:55:20.296Z,973.39
2018-12-11T02:56:20.314Z,973.33
2018-12-11T02:57:20.290Z,973.36
2018-12-11T02:58:20.280Z,973.40
2018-12-11T02:59:20.277Z,973.38
2018-12-11T03:00:20.269Z,973.35
2018-12-11T03:01:20.291Z,973.41
2018-12-11T03:02:20.261Z,973.39
2018-12-11T03:03:20.294Z,973.41
2018-12-11T03:04:20.248Z,973.38
2018-12-11T03:05:20.240Z,973.35
2018-12-11T03:06:20.263Z,973.39
2018-12-11T03:07:20.230Z,973.32
2018-12-11T03:08:20.225Z,973.34
2018-12-11T03:09:20.217Z,973.32
2018-12-11T03:10:20.212Z,973.40
2018-12-11T03:11:20.329Z,973.39
2018-12-11T03:12:20.209Z,973.40
2018-12-11T03:13:20.190Z,973.39
2018-12-11T03:14:20.197Z,973.36
2018-12-11T03:15:20.192Z,973.33
2018-12-11T03:16:20.208Z,973.48
2018-12-11T03:17:20.180Z,973.37
2018-12-11T03:18:20.167Z,973.38
2018-12-11T03:19:20.164Z,973.35
2018-12-11T03:20:20.163Z,973.43
2018-12-11T03:21:20.179Z,973.37
2018-12-11T03:22:20.154Z,973.38
2018-12-11T03:23:20.150Z,973.39
2018-12-11T03:24:20.159Z,973.51
2018-12-11T03:25:20.135Z,973.46
2018-12-11T03:26:20.125Z,973.41
2018-12-11T03:27:20.154Z,973.41
2018-12-11T03:28:20.116Z,973.49
2018-12-11T03:29:20.109Z,973.52
2018-12-11T03:30:20.104Z,973.57
2018-12-11T03:31:20.107Z,973.56
2018-12-11T03:32:20.138Z,973.62
2018-12-11T03:33:20.087Z,973.62
2018-12-11T03:34:20.082Z,973.56
2018-12-11T03:35:20.086Z,973.54
2018-12-11T03:36:20.066Z,973.62
2018-12-11T03:37:20.087Z,973.55
2018-12-11T03:38:20.058Z,973.59
2018-12-11T03:39:20.054Z,973.54
2018-12-11T03:40:20.046Z,973.56
2018-12-11T03:41:20.042Z,973.59
2018-12-11T03:42:20.068Z,973.53
2018-12-11T03:43:20.028Z,973.56
2018-12-11T03:44:20.024Z,973.62
2018-12-11T03:45:20.017Z,973.60
2018-12-11T03:46:20.014Z,973.60
2018-12-11T03:47:20.045Z,973.60
2018-12-11T03:48:20.004Z,973.60
2018-12-11T03:49:19.999Z,973.59
2018-12-11T03:50:19.989Z,973.57
2018-12-11T03:51:20.928Z,973.53
2018-12-11T03:52:21.553Z,973.56
2018-12-11T03:53:19.975Z,973.63
2018-12-11T03:54:19.975Z,973.64
2018-12-11T03:55:19.966Z,973.61
2018-12-11T03:56:19.978Z,973.63
2018-12-11T03:57:19.980Z,973.57
2018-12-11T03:58:19.944Z,973.57
2018-12-11T03:59:19.942Z,973.58
2018-12-11T04:00:19.931Z,973.60
2018-12-11T04:01:19.929Z,973.63
2018-12-11T04:02:19.955Z,973.61
2018-12-11T04:03:19.917Z,973.62
2018-12-11T04:04:19.967Z,973.57
2018-12-11T04:05:19.906Z,973.59
2018-12-11T04:06:19.901Z,973.64
2018-12-11T04:07:19.925Z,973.66
2018-12-11T04:08:19.888Z,973.63
2018-12-11T04:09:19.883Z,973.61
2018-12-11T04:10:19.882Z,973.52
2018-12-11T04:11:19.878Z,973.70
2018-12-11T04:12:19.897Z,973.60
2018-12-11T04:13:19.862Z,973.60
2018-12-11T04:14:19.853Z,973.68
2018-12-11T04:15:19.853Z,973.58
2018-12-11T04:16:19.845Z,973.70
2018-12-11T04:17:19.876Z,973.72
2018-12-11T04:18:19.836Z,973.70
2018-12-11T04:19:19.829Z,973.75
2018-12-11T04:20:19.827Z,973.73
2018-12-11T04:21:19.825Z,973.72
2018-12-11T04:22:19.883Z,973.73
2018-12-11T04:23:19.813Z,973.73
2018-12-11T04:24:19.798Z,973.67
2018-12-11T04:25:19.799Z,973.69
2018-12-11T04:26:19.785Z,973.66
2018-12-11T04:27:19.814Z,973.73
2018-12-11T04:28:19.782Z,973.70
2018-12-11T04:29:19.772Z,973.68
2018-12-11T04:30:19.766Z,973.70
2018-12-11T04:31:19.764Z,973.68
2018-12-11T04:32:19.787Z,973.66
2018-12-11T04:33:19.748Z,973.71
2018-12-11T04:34:19.749Z,973.70
2018-12-11T04:35:19.745Z,973.75
2018-12-11T04:36:19.743Z,973.69
2018-12-11T04:37:19.752Z,973.65
2018-12-11T04:38:19.723Z,973.63
2018-12-11T04:39:19.720Z,973.71
2018-12-11T04:40:19.715Z,973.53
2018-12-11T04:41:19.708Z,973.66
2018-12-11T04:42:19.728Z,973.74
2018-12-11T04:43:19.696Z,973.73
2018-12-11T04:44:19.694Z,973.75
2018-12-11T04:45:19.683Z,973.74
2018-12-11T04:46:19.679Z,973.79
2018-12-11T04:47:19.703Z,973.82
2018-12-11T04:48:19.667Z,973.87
2018-12-11T04:49:19.662Z,973.88
2018-12-11T04:50:19.657Z,973.86
2018-12-11T04:51:19.683Z,973.93
2018-12-11T04:52:19.650Z,973.94
2018-12-11T04:53:19.645Z,973.91
2018-12-11T04:54:19.642Z,973.93
2018-12-11T04:55:19.630Z,973.89
2018-12-11T04:56:19.650Z,973.94
2018-12-11T04:57:19.642Z,973.91
2018-12-11T04:58:19.609Z,973.92
2018-12-11T04:59:19.606Z,973.98
2018-12-11T05:00:19.602Z,973.91
2018-12-11T05:01:19.593Z,973.95
2018-12-11T05:02:19.619Z,973.94
2018-12-11T05:03:19.585Z,973.96
2018-12-11T05:04:19.580Z,973.96
2018-12-11T05:05:19.569Z,973.91
2018-12-11T05:06:19.580Z,973.97
2018-12-11T05:07:19.589Z,974.02
2018-12-11T05:08:19.557Z,974.00
2018-12-11T05:09:19.545Z,973.98
2018-12-11T05:10:19.542Z,973.97
2018-12-11T05:11:19.542Z,973.99
2018-12-11T05:12:19.559Z,973.94
2018-12-11T05:13:19.530Z,973.95
2018-12-11T05:14:19.525Z,973.91
2018-12-11T05:15:19.517Z,974.00
2018-12-11T05:16:19.513Z,973.98
2018-12-11T05:17:19.545Z,973.97
2018-12-11T05:18:21.196Z,973.98
2018-12-11T05:19:19.493Z,973.96
2018-12-11T05:20:19.493Z,973.98
2018-12-11T05:21:19.486Z,973.98
2018-12-11T05:22:19.506Z,973.93
2018-12-11T05:23:19.475Z,973.98
2018-12-11T05:24:19.469Z,973.96
2018-12-11T05:25:19.466Z,974.04
2018-12-11T05:26:19.461Z,974.00
2018-12-11T05:27:19.477Z,973.98
2018-12-11T05:28:19.449Z,973.99
2018-12-11T05:29:19.437Z,974.01
2018-12-11T05:30:19.437Z,974.06
2018-12-11T05:31:19.428Z,974.02
2018-12-11T05:32:19.454Z,974.02
2018-12-11T05:33:19.420Z,974.04
2018-12-11T05:34:19.418Z,974.09
2018-12-11T05:35:19.405Z,974.04
2018-12-11T05:36:19.406Z,974.09
2018-12-11T05:37:19.426Z,974.12
2018-12-11T05:38:19.392Z,974.05
2018-12-11T05:39:19.387Z,974.05
2018-12-11T05:40:19.380Z,974.13
2018-12-11T05:41:19.376Z,974.09
2018-12-11T05:45:23.220Z,974.16
2018-12-11T05:46:23.183Z,974.16
2018-12-11T05:47:23.211Z,974.19
2018-12-11T05:48:23.170Z,974.18
2018-12-11T05:49:23.172Z,974.18
2018-12-11T05:50:23.159Z,974.16
2018-12-11T05:51:23.192Z,974.14
2018-12-11T05:52:23.152Z,974.13
2018-12-11T05:53:23.137Z,974.14
2018-12-11T05:54:23.192Z,974.11
2018-12-11T05:55:23.134Z,974.17
2018-12-11T05:56:23.159Z,974.12
2018-12-11T05:57:23.123Z,974.17
2018-12-11T05:58:23.121Z,974.21
2018-12-11T05:59:23.137Z,974.15
2018-12-11T06:00:23.106Z,974.18
2018-12-11T06:01:23.099Z,974.22
2018-12-11T06:02:23.127Z,974.24
2018-12-11T06:03:23.087Z,974.15
2018-12-11T06:04:23.089Z,974.24
2018-12-11T06:05:23.146Z,974.24
2018-12-11T06:06:23.075Z,974.27
2018-12-11T06:07:23.098Z,974.33
2018-12-11T06:08:23.070Z,974.29
2018-12-11T06:09:23.057Z,974.28
2018-12-11T06:10:23.054Z,974.25
2018-12-11T06:11:23.076Z,974.26
2018-12-11T06:12:23.042Z,974.27
2018-12-11T06:13:23.040Z,974.28
2018-12-11T06:14:23.033Z,974.34
2018-12-11T06:15:23.020Z,974.31
2018-12-11T06:16:23.048Z,974.37
2018-12-11T06:17:23.018Z,974.35
2018-12-11T06:18:23.029Z,974.36
2018-12-11T06:19:23.004Z,974.39
2018-12-11T06:20:22.994Z,974.37
2018-12-11T06:21:23.022Z,974.29
2018-12-11T06:22:22.988Z,974.39
2018-12-11T06:23:22.980Z,974.43
2018-12-11T06:24:22.975Z,974.39
2018-12-11T06:25:22.997Z,974.38
2018-12-11T06:26:22.991Z,974.42
2018-12-11T06:27:22.956Z,974.32
2018-12-11T06:28:22.959Z,974.36
2018-12-11T06:29:22.945Z,974.37
2018-12-11T06:30:22.948Z,974.35
2018-12-11T06:31:22.976Z,974.35
2018-12-11T06:32:22.933Z,974.35
2018-12-11T06:33:22.924Z,974.38
2018-12-11T06:34:22.924Z,974.35
2018-12-11T06:35:24.161Z,974.35
2018-12-11T06:36:22.937Z,974.34
2018-12-11T06:37:22.909Z,974.38
2018-12-11T06:38:22.903Z,974.38
2018-12-11T06:39:22.897Z,974.39
2018-12-11T06:40:22.896Z,974.39
2018-12-11T06:41:24.759Z,974.50
2018-12-11T06:42:22.879Z,974.43
2018-12-11T06:43:22.876Z,974.44
2018-12-11T06:44:22.871Z,974.48
2018-12-11T06:45:22.865Z,974.53
2018-12-11T06:46:22.886Z,974.53
2018-12-11T06:47:23.738Z,974.50
2018-12-11T06:48:28.619Z,974.51
2018-12-11T06:49:22.849Z,974.51
2018-12-11T06:50:22.843Z,974.50
2018-12-11T06:51:22.862Z,974.42
2018-12-11T06:52:22.830Z,974.47
2018-12-11T06:53:22.823Z,974.42
2018-12-11T06:54:22.816Z,974.43
2018-12-11T06:55:23.673Z,974.49
2018-12-11T06:56:22.833Z,974.46
2018-12-11T06:57:22.796Z,974.50
2018-12-11T06:58:22.793Z,974.50
2018-12-11T06:59:22.785Z,974.53
2018-12-11T07:00:23.684Z,974.58
2018-12-11T07:01:22.806Z,974.55
2018-12-11T07:02:22.770Z,974.59
2018-12-11T07:03:25.605Z,974.59
2018-12-11T07:04:24.319Z,974.60
2018-12-11T07:05:22.759Z,974.58
2018-12-11T07:06:22.777Z,974.60
2018-12-11T07:07:22.744Z,974.62
2018-12-11T07:08:22.737Z,974.64
2018-12-11T07:09:22.734Z,974.75
2018-12-11T07:10:22.729Z,974.70
2018-12-11T07:11:22.753Z,974.67
2018-12-11T07:12:22.717Z,974.57
2018-12-11T07:13:22.709Z,974.54
2018-12-11T07:14:22.704Z,974.90
2018-12-11T07:15:22.696Z,974.88
2018-12-11T07:16:22.720Z,974.86
2018-12-11T07:17:22.699Z,974.79
2018-12-11T07:18:25.898Z,974.87
2018-12-11T07:19:22.668Z,974.89
2018-12-11T07:20:22.682Z,974.82
2018-12-11T07:21:22.700Z,974.84
2018-12-11T07:22:22.664Z,974.85
2018-12-11T07:23:22.655Z,974.88
2018-12-11T07:24:22.653Z,974.87
2018-12-11T07:25:22.682Z,974.98
2018-12-11T07:26:22.644Z,974.94
2018-12-11T07:27:24.071Z,974.92
2018-12-11T07:28:22.633Z,974.97
2018-12-11T07:29:22.659Z,974.97
2018-12-11T07:30:22.619Z,975.01
2018-12-11T07:31:22.644Z,974.90
2018-12-11T07:32:22.607Z,974.97
2018-12-11T07:33:22.603Z,974.93
2018-12-11T07:34:23.185Z,974.96
2018-12-11T07:35:22.619Z,974.93
2018-12-11T07:36:22.588Z,974.94
2018-12-11T07:37:22.580Z,974.89
2018-12-11T07:38:22.575Z,974.90
2018-12-11T07:39:22.569Z,974.85
2018-12-11T07:40:22.596Z,974.79
2018-12-11T07:41:22.555Z,974.74
2018-12-11T07:42:22.557Z,974.77
2018-12-11T07:43:22.543Z,974.75
2018-12-11T07:44:22.544Z,974.86
2018-12-11T07:45:22.571Z,974.85
2018-12-11T07:46:22.530Z,974.82
2018-12-11T07:47:22.525Z,974.86
2018-12-11T07:48:22.526Z,974.80
2018-12-11T07:49:22.526Z,974.79
2018-12-11T07:50:22.535Z,974.80
2018-12-11T07:51:22.506Z,974.81
2018-12-11T07:52:22.493Z,974.79
2018-12-11T07:53:22.489Z,974.69
2018-12-11T07:54:22.483Z,974.75
2018-12-11T07:55:22.512Z,974.80
2018-12-11T07:56:22.478Z,974.77
2018-12-11T07:57:22.478Z,974.75
2018-12-11T07:58:22.466Z,974.78
2018-12-11T07:59:22.462Z,974.78
2018-12-11T08:00:22.494Z,974.84
2018-12-11T08:01:22.457Z,974.84
2018-12-11T08:02:22.443Z,974.86
2018-12-11T08:03:22.474Z,974.84
2018-12-11T08:04:22.431Z,974.89
2018-12-11T08:05:22.431Z,974.86
2018-12-11T08:06:22.453Z,974.90
2018-12-11T08:07:22.424Z,974.89
2018-12-11T08:08:22.413Z,974.90
2018-12-11T08:09:22.409Z,974.92
2018-12-11T08:10:22.401Z,974.93
2018-12-11T08:11:22.530Z,974.98
2018-12-11T08:12:22.393Z,974.99
2018-12-11T08:13:22.389Z,975.01
2018-12-11T08:14:22.379Z,975.00
2018-12-11T08:15:22.374Z,974.98
2018-12-11T08:16:22.399Z,974.97
2018-12-11T08:17:22.369Z,974.95
2018-12-11T08:18:22.363Z,974.96
2018-12-11T08:19:22.353Z,974.96
2018-12-11T08:20:22.348Z,974.95
2018-12-11T08:21:22.376Z,974.93
2018-12-11T08:22:22.337Z,974.98
2018-12-11T08:23:22.331Z,974.94
2018-12-11T08:24:22.335Z,974.94
2018-12-11T08:25:22.321Z,974.97
2018-12-11T08:26:22.956Z,974.98
2018-12-11T08:27:22.312Z,975.02
2018-12-11T08:28:22.309Z,975.02
2018-12-11T08:29:22.297Z,975.07
2018-12-11T08:30:22.296Z,975.04
2018-12-11T08:31:22.320Z,974.98
2018-12-11T08:32:22.283Z,975.06
2018-12-11T08:33:22.276Z,975.10
2018-12-11T08:34:22.284Z,975.09
2018-12-11T08:35:22.266Z,975.08
2018-12-11T08:36:22.286Z,975.04
2018-12-11T08:37:22.263Z,975.13
2018-12-11T08:38:22.255Z,975.12
2018-12-11T08:39:22.251Z,975.10
2018-12-11T08:40:22.246Z,975.12
2018-12-11T08:41:22.267Z,975.06
2018-12-11T08:42:22.230Z,975.15
2018-12-11T08:43:22.227Z,975.13
2018-12-11T08:44:22.224Z,975.14
2018-12-11T08:45:22.223Z,975.12
2018-12-11T08:46:22.294Z,975.14
2018-12-11T08:47:22.203Z,975.19
2018-12-11T08:48:22.205Z,975.17
2018-12-11T08:49:22.200Z,975.13
2018-12-11T08:50:22.196Z,975.15
2018-12-11T08:51:22.220Z,975.09
2018-12-11T08:52:22.184Z,975.14
2018-12-11T08:53:22.180Z,975.18
2018-12-11T08:54:22.174Z,975.14
2018-12-11T08:55:22.172Z,975.11
2018-12-11T08:56:22.191Z,975.16
2018-12-11T08:57:22.161Z,975.15
2018-12-11T08:58:22.147Z,975.16
2018-12-11T08:59:22.150Z,975.21
2018-12-11T09:00:22.143Z,975.17
2018-12-11T09:01:22.166Z,975.22
2018-12-11T09:02:22.123Z,975.19
2018-12-11T09:03:22.155Z,975.18
2018-12-11T09:04:22.123Z,975.23
2018-12-11T09:05:22.118Z,975.24
2018-12-11T09:06:22.110Z,975.24
2018-12-11T09:07:22.139Z,975.19
2018-12-11T09:08:22.102Z,975.23
2018-12-11T09:09:22.099Z,975.21
2018-12-11T09:10:22.095Z,975.29
2018-12-11T09:11:22.090Z,975.22
2018-12-11T09:12:22.114Z,975.20
2018-12-11T09:13:22.082Z,975.26
2018-12-11T09:14:22.091Z,975.24
2018-12-11T09:15:22.071Z,975.29
2018-12-11T09:16:22.068Z,975.30
2018-12-11T09:17:22.095Z,975.42
2018-12-11T09:18:22.054Z,975.38
2018-12-11T09:19:22.050Z,975.40
2018-12-11T09:20:22.055Z,975.37
2018-12-11T09:21:22.042Z,975.40
2018-12-11T09:22:22.065Z,975.40
2018-12-11T09:23:22.032Z,975.44
2018-12-11T09:24:22.025Z,975.36
2018-12-11T09:25:22.023Z,975.39
2018-12-11T09:26:22.014Z,975.48
2018-12-11T09:27:22.039Z,975.37
2018-12-11T09:28:22.005Z,975.41
2018-12-11T09:29:22.001Z,975.42
2018-12-11T09:30:21.999Z,975.48
2018-12-11T09:31:21.993Z,975.53
2018-12-11T09:32:22.017Z,975.50
2018-12-11T09:33:21.985Z,975.44
2018-12-11T09:34:21.980Z,975.50
2018-12-11T09:35:21.972Z,975.50
2018-12-11T09:36:21.969Z,975.49
2018-12-11T09:37:21.992Z,975.54
2018-12-11T09:38:21.957Z,975.58
2018-12-11T09:39:21.952Z,975.60
2018-12-11T09:40:24.644Z,975.53
2018-12-11T09:41:21.945Z,975.48
2018-12-11T09:42:27.769Z,975.53
2018-12-11T09:43:21.931Z,975.56
2018-12-11T09:44:21.967Z,975.62
2018-12-11T09:45:21.928Z,975.58
2018-12-11T09:46:21.940Z,975.48
2018-12-11T09:47:21.944Z,975.51
2018-12-11T09:48:21.913Z,975.48
2018-12-11T09:49:21.912Z,975.46
2018-12-11T09:50:21.908Z,975.48
2018-12-11T09:51:21.898Z,975.48
2018-12-11T09:52:21.923Z,975.48
2018-12-11T09:53:21.899Z,975.47
2018-12-11T09:54:21.885Z,975.46
2018-12-11T09:55:21.882Z,975.51
2018-12-11T09:56:21.939Z,975.52
2018-12-11T09:57:21.905Z,975.47
2018-12-11T09:58:21.867Z,975.58
2018-12-11T09:59:23.553Z,975.49
2018-12-11T10:00:25.785Z,975.55
2018-12-11T10:01:21.855Z,975.64
2018-12-11T10:02:21.876Z,975.63
2018-12-11T10:03:21.841Z,975.60
2018-12-11T10:04:21.847Z,975.65
2018-12-11T10:05:21.839Z,975.64
2018-12-11T10:06:21.835Z,975.62
2018-12-11T10:07:21.857Z,975.58
2018-12-11T10:08:21.830Z,975.59
2018-12-11T10:09:21.823Z,975.65
2018-12-11T10:10:21.815Z,975.53
2018-12-11T10:11:21.816Z,975.61
2018-12-11T10:12:21.835Z,975.61
2018-12-11T10:13:21.804Z,975.58
2018-12-11T10:14:21.802Z,975.54
2018-12-11T10:15:21.799Z,975.58
2018-12-11T10:16:21.810Z,975.62
2018-12-11T10:17:21.830Z,975.58
2018-12-11T10:18:21.890Z,975.53
2018-12-11T10:19:21.779Z,975.53
2018-12-11T10:20:21.777Z,975.57
2018-12-11T10:21:21.767Z,975.55
2018-12-11T10:22:21.822Z,975.54
2018-12-11T10:23:21.754Z,975.48
2018-12-11T10:24:21.783Z,975.58
2018-12-11T10:25:21.756Z,975.51
2018-12-11T10:26:21.747Z,975.50
2018-12-11T10:27:21.751Z,975.59
2018-12-11T10:28:30.568Z,975.57
2018-12-11T10:29:21.875Z,975.54
2018-12-11T10:30:24.515Z,975.60
2018-12-11T10:31:21.821Z,975.57
2018-12-11T10:32:21.831Z,975.57
2018-12-11T10:33:21.906Z,975.60
2018-12-11T10:34:21.721Z,975.57
2018-12-11T10:35:21.709Z,975.55
2018-12-11T10:36:21.708Z,975.53
2018-12-11T10:37:21.703Z,975.60
2018-12-11T10:38:21.724Z,975.64
2018-12-11T10:39:21.783Z,975.62
2018-12-11T10:40:21.816Z,975.57
2018-12-11T10:41:21.686Z,975.60
2018-12-11T10:42:21.684Z,975.61
2018-12-11T10:43:21.731Z,975.59
2018-12-11T10:44:21.673Z,975.63
2018-12-11T10:45:21.764Z,975.58
2018-12-11T10:46:21.668Z,975.60
2018-12-11T10:47:22.085Z,975.57
2018-12-11T10:48:21.685Z,975.50
2018-12-11T10:49:21.660Z,975.59
2018-12-11T10:50:21.805Z,975.55
2018-12-11T10:51:21.649Z,975.59
2018-12-11T10:52:22.600Z,975.50
2018-12-11T10:53:21.691Z,975.48
2018-12-11T10:54:21.662Z,975.51
2018-12-11T10:55:22.600Z,975.56
2018-12-11T10:56:21.636Z,975.45
2018-12-11T10:57:21.629Z,975.55
2018-12-11T10:58:21.649Z,975.50
2018-12-11T10:59:21.623Z,975.46
2018-12-11T11:00:21.616Z,975.50
2018-12-11T11:01:24.638Z,975.51
2018-12-11T11:02:21.608Z,975.42
2018-12-11T11:03:21.631Z,975.51
2018-12-11T11:04:21.600Z,975.40
2018-12-11T11:05:21.597Z,975.54
2018-12-11T11:06:22.254Z,975.51
2018-12-11T11:07:21.591Z,975.40
2018-12-11T11:08:21.612Z,975.53
2018-12-11T11:09:21.584Z,975.59
2018-12-11T11:10:21.578Z,975.55
2018-12-11T11:11:21.659Z,975.54
2018-12-11T11:12:21.575Z,975.48
2018-12-11T11:13:21.599Z,975.51
2018-12-11T11:14:21.585Z,975.54
2018-12-11T11:15:21.594Z,975.64
2018-12-11T11:16:21.554Z,975.54
2018-12-11T11:17:21.548Z,975.56
2018-12-11T11:18:21.583Z,975.58
2018-12-11T11:19:21.539Z,975.58
2018-12-11T11:20:21.539Z,975.54
2018-12-11T11:21:21.533Z,975.59
2018-12-11T11:22:22.238Z,975.52
2018-12-11T11:23:21.560Z,975.57
2018-12-11T11:24:21.520Z,975.58
2018-12-11T11:25:21.521Z,975.55
2018-12-11T11:26:21.512Z,975.60
2018-12-11T11:27:21.511Z,975.61
2018-12-11T11:28:21.537Z,975.59
2018-12-11T11:29:21.497Z,975.62
2018-12-11T11:30:21.499Z,975.70
2018-12-11T11:31:21.492Z,975.72
2018-12-11T11:32:21.487Z,975.66
2018-12-11T11:33:21.512Z,975.62
2018-12-11T11:34:21.485Z,975.63
2018-12-11T11:35:21.477Z,975.66
2018-12-11T11:36:21.482Z,975.60
2018-12-11T11:37:21.468Z,975.68
2018-12-11T11:38:21.506Z,975.66
2018-12-11T11:39:21.457Z,975.72
2018-12-11T11:40:21.462Z,975.70
2018-12-11T11:41:21.451Z,975.74
2018-12-11T11:42:21.445Z,975.71
2018-12-11T11:43:21.471Z,975.69
2018-12-11T11:44:21.435Z,975.62
2018-12-11T11:45:21.432Z,975.70
2018-12-11T11:46:21.428Z,975.68
2018-12-11T11:47:21.423Z,975.70
2018-12-11T11:48:21.448Z,975.71
2018-12-11T11:49:21.422Z,975.74
2018-12-11T11:50:21.412Z,975.72
2018-12-11T11:51:21.407Z,975.66
2018-12-11T11:52:21.403Z,975.67
2018-12-11T11:53:21.427Z,975.65
2018-12-11T11:54:21.407Z,975.70
2018-12-11T11:55:21.387Z,975.69
2018-12-11T11:56:21.383Z,975.66
2018-12-11T11:57:21.379Z,975.70
2018-12-11T11:58:21.403Z,975.72
2018-12-11T11:59:21.373Z,975.72
2018-12-11T12:00:21.722Z,975.66
2018-12-11T12:01:22.241Z,975.63
2018-12-11T12:02:21.363Z,975.65
2018-12-11T12:03:21.401Z,975.69
2018-12-11T12:04:21.346Z,975.75
2018-12-11T12:05:21.341Z,975.73
2018-12-11T12:06:21.341Z,975.68
2018-12-11T12:07:21.333Z,975.66
2018-12-11T12:08:21.356Z,975.67
2018-12-11T12:09:21.324Z,975.74
2018-12-11T12:10:21.320Z,975.73
2018-12-11T12:11:21.321Z,975.75
2018-12-11T12:12:21.307Z,975.67
2018-12-11T12:13:21.342Z,975.77
2018-12-11T12:14:21.304Z,975.77
2018-12-11T12:15:21.295Z,975.75
2018-12-11T12:16:21.288Z,975.75
2018-12-11T12:17:21.288Z,975.84
2018-12-11T12:18:21.314Z,975.79
2018-12-11T12:19:21.278Z,975.77
2018-12-11T12:20:21.277Z,975.81
2018-12-11T12:21:21.272Z,975.90
2018-12-11T12:22:22.330Z,975.78
2018-12-11T12:23:21.291Z,975.89
2018-12-11T12:24:21.258Z,975.89
2018-12-11T12:25:21.250Z,975.85
2018-12-11T12:26:21.244Z,975.79
2018-12-11T12:27:21.245Z,975.85
2018-12-11T12:28:21.272Z,975.94
2018-12-11T12:29:21.234Z,975.92
2018-12-11T12:30:21.226Z,975.91
2018-12-11T12:31:21.222Z,975.88
2018-12-11T12:32:21.250Z,975.78
2018-12-11T12:33:21.214Z,975.88
2018-12-11T12:34:21.211Z,975.90
2018-12-11T12:35:21.205Z,975.84
2018-12-11T12:36:21.203Z,975.88
2018-12-11T12:37:21.232Z,975.95
2018-12-11T12:38:21.187Z,975.99
2018-12-11T12:39:21.186Z,975.95
2018-12-11T12:40:21.179Z,975.89